sensor_id;sensor_type;location;lat;lon;timestamp;noise_LAeq;noise_LA_min;noise_LA_max;noise_LA01;noise_LA95
82731;Laerm;72471;51.660;5.826;2024-01-15T00:00:29;42.1;35.82;57.03;;
82731;Laerm;72471;51.660;5.826;2024-01-15T00:04:36;36.89;35.09;43.8;;
82731;Laerm;72471;51.660;5.826;2024-01-15T00:08:29;37.35;35.22;48.1;;
82731;Laerm;72471;51.660;5.826;2024-01-15T00:12:35;38.69;35.59;50.72;;
82731;Laerm;72471;51.660;5.826;2024-01-15T00:16:29;37.78;35.86;48.02;;
82731;Laerm;72471;51.660;5.826;2024-01-15T00:20:29;37.81;35.7;48.74;;
82731;Laerm;72471;51.660;5.826;2024-01-15T00:24:29;39.21;35.76;51.39;;
82731;Laerm;72471;51.660;5.826;2024-01-15T00:28:29;38.41;36.07;48.07;;
82731;Laerm;72471;51.660;5.826;2024-01-15T00:32:35;37.92;35.82;44.79;;
82731;Laerm;72471;51.660;5.826;2024-01-15T00:36:35;37.25;35.05;47.08;;
82731;Laerm;72471;51.660;5.826;2024-01-15T00:40:35;36.92;35.09;47.88;;
82731;Laerm;72471;51.660;5.826;2024-01-15T00:44:35;37.52;35.44;43.64;;
82731;Laerm;72471;51.660;5.826;2024-01-15T00:48:29;37.65;35.73;43.6;;
82731;Laerm;72471;51.660;5.826;2024-01-15T00:52:29;37.7;35.84;44.93;;
82731;Laerm;72471;51.660;5.826;2024-01-15T00:56:29;37.76;35.83;43.64;;
82731;Laerm;72471;51.660;5.826;2024-01-15T01:00:35;37.9;36;48.46;;
82731;Laerm;72471;51.660;5.826;2024-01-15T01:04:29;38.21;35.67;48.31;;
82731;Laerm;72471;51.660;5.826;2024-01-15T01:08:29;38.26;35.82;46.3;;
82731;Laerm;72471;51.660;5.826;2024-01-15T01:12:29;37.9;35.15;48.75;;
82731;Laerm;72471;51.660;5.826;2024-01-15T01:16:29;38.29;35.17;52.89;;
82731;Laerm;72471;51.660;5.826;2024-01-15T01:20:30;38.62;35.72;48;;
82731;Laerm;72471;51.660;5.826;2024-01-15T01:24:29;39.57;35.59;61.01;;
82731;Laerm;72471;51.660;5.826;2024-01-15T01:28:30;39.25;35.74;60.77;;
82731;Laerm;72471;51.660;5.826;2024-01-15T01:32:29;37.94;35.81;50.02;;
82731;Laerm;72471;51.660;5.826;2024-01-15T01:36:31;39.32;35.88;61;;
82731;Laerm;72471;51.660;5.826;2024-01-15T01:40:30;41.32;36.02;59.97;;
82731;Laerm;72471;51.660;5.826;2024-01-15T01:44:29;39.14;35.03;60.95;;
82731;Laerm;72471;51.660;5.826;2024-01-15T01:48:29;38.54;35.32;49.64;;
82731;Laerm;72471;51.660;5.826;2024-01-15T01:52:30;39.39;35.47;60.84;;
82731;Laerm;72471;51.660;5.826;2024-01-15T01:56:29;38.87;35.8;60.89;;
82731;Laerm;72471;51.660;5.826;2024-01-15T02:00:29;39.73;35.78;61.08;;
82731;Laerm;72471;51.660;5.826;2024-01-15T02:04:29;39.85;35.93;61.04;;
82731;Laerm;72471;51.660;5.826;2024-01-15T02:08:29;39.57;35.78;61;;
82731;Laerm;72471;51.660;5.826;2024-01-15T02:12:29;40.08;36.26;61.07;;
82731;Laerm;72471;51.660;5.826;2024-01-15T02:16:29;41.27;35.92;62.03;;
82731;Laerm;72471;51.660;5.826;2024-01-15T02:20:29;40.21;35.18;60.8;;
82731;Laerm;72471;51.660;5.826;2024-01-15T02:24:29;40.82;35.29;61.23;;
82731;Laerm;72471;51.660;5.826;2024-01-15T02:28:30;39.53;35.84;59.78;;
82731;Laerm;72471;51.660;5.826;2024-01-15T02:32:29;38.99;35.72;59.05;;
82731;Laerm;72471;51.660;5.826;2024-01-15T02:36:29;39.56;35.79;61.75;;
82731;Laerm;72471;51.660;5.826;2024-01-15T02:40:30;40.47;35.61;60.93;;
82731;Laerm;72471;51.660;5.826;2024-01-15T02:44:29;44.86;36.2;61.17;;
82731;Laerm;72471;51.660;5.826;2024-01-15T02:48:29;40.31;35.79;61.82;;
82731;Laerm;72471;51.660;5.826;2024-01-15T02:52:29;40.55;35.28;61.3;;
82731;Laerm;72471;51.660;5.826;2024-01-15T02:56:29;40.55;35.22;60.62;;
82731;Laerm;72471;51.660;5.826;2024-01-15T03:00:29;40.86;35.39;61.06;;
82731;Laerm;72471;51.660;5.826;2024-01-15T03:04:30;40;35.65;60.46;;
82731;Laerm;72471;51.660;5.826;2024-01-15T03:08:29;40.02;35.6;61.25;;
82731;Laerm;72471;51.660;5.826;2024-01-15T03:12:29;40;35.66;61.47;;
82731;Laerm;72471;51.660;5.826;2024-01-15T03:16:30;40.38;35.77;61.28;;
82731;Laerm;72471;51.660;5.826;2024-01-15T03:20:29;39.59;35.96;60.3;;
82731;Laerm;72471;51.660;5.826;2024-01-15T03:24:29;42.21;36.06;61.11;;
82731;Laerm;72471;51.660;5.826;2024-01-15T03:28:31;39.36;35.41;61.34;;
82731;Laerm;72471;51.660;5.826;2024-01-15T03:32:29;40.04;35.41;61.37;;
82731;Laerm;72471;51.660;5.826;2024-01-15T03:36:29;39.91;35.9;60.46;;
82731;Laerm;72471;51.660;5.826;2024-01-15T03:40:30;40.1;35.91;59.99;;
82731;Laerm;72471;51.660;5.826;2024-01-15T03:44:29;40.49;35.79;61.42;;
82731;Laerm;72471;51.660;5.826;2024-01-15T03:48:29;40.09;35.51;61.43;;
82731;Laerm;72471;51.660;5.826;2024-01-15T03:52:29;41.37;36.14;62.93;;
82731;Laerm;72471;51.660;5.826;2024-01-15T03:56:29;41.58;36.07;63.06;;
82731;Laerm;72471;51.660;5.826;2024-01-15T04:00:29;42.43;36.38;60.81;;
82731;Laerm;72471;51.660;5.826;2024-01-15T04:04:30;40.17;35.78;59.97;;
82731;Laerm;72471;51.660;5.826;2024-01-15T04:08:29;40.46;35.87;61.03;;
82731;Laerm;72471;51.660;5.826;2024-01-15T04:12:29;41.84;36.17;61.85;;
82731;Laerm;72471;51.660;5.826;2024-01-15T04:16:29;41.35;36.22;60.92;;
82731;Laerm;72471;51.660;5.826;2024-01-15T04:20:29;40.41;36.42;61.25;;
82731;Laerm;72471;51.660;5.826;2024-01-15T04:24:31;42.23;36.38;55.76;;
82731;Laerm;72471;51.660;5.826;2024-01-15T04:28:29;41.13;36.45;61.28;;
82731;Laerm;72471;51.660;5.826;2024-01-15T04:32:29;41.26;36.58;61.53;;
82731;Laerm;72471;51.660;5.826;2024-01-15T04:36:29;44.22;36.61;60.12;;
82731;Laerm;72471;51.660;5.826;2024-01-15T04:40:29;41.33;36.45;61.18;;
82731;Laerm;72471;51.660;5.826;2024-01-15T04:44:29;42.11;36.63;59.59;;
82731;Laerm;72471;51.660;5.826;2024-01-15T04:48:29;40.57;36.08;60.93;;
82731;Laerm;72471;51.660;5.826;2024-01-15T04:52:29;40.91;37.03;60.37;;
82731;Laerm;72471;51.660;5.826;2024-01-15T04:56:29;41.7;36.53;62.24;;
82731;Laerm;72471;51.660;5.826;2024-01-15T05:00:29;42.88;36.7;60.79;;
82731;Laerm;72471;51.660;5.826;2024-01-15T05:04:30;42.47;36.91;62.25;;
82731;Laerm;72471;51.660;5.826;2024-01-15T05:08:29;43.13;36.85;60.83;;
82731;Laerm;72471;51.660;5.826;2024-01-15T05:12:29;44.4;37.07;60.48;;
82731;Laerm;72471;51.660;5.826;2024-01-15T05:16:29;46.64;37.63;60.18;;
82731;Laerm;72471;51.660;5.826;2024-01-15T05:20:29;45.75;37.64;61.34;;
82731;Laerm;72471;51.660;5.826;2024-01-15T05:24:29;44.87;38.07;60.76;;
82731;Laerm;72471;51.660;5.826;2024-01-15T05:28:29;46.34;38.51;60.33;;
82731;Laerm;72471;51.660;5.826;2024-01-15T05:32:29;46.71;38.6;61.19;;
82731;Laerm;72471;51.660;5.826;2024-01-15T05:36:29;45.39;38.62;61.08;;
82731;Laerm;72471;51.660;5.826;2024-01-15T05:44:29;48.6;41.08;63.18;;
82731;Laerm;72471;51.660;5.826;2024-01-15T05:48:29;48.87;38.72;58.9;;
82731;Laerm;72471;51.660;5.826;2024-01-15T05:52:29;45.4;38.16;55.04;;
82731;Laerm;72471;51.660;5.826;2024-01-15T05:56:29;46.27;37.74;57.72;;
82731;Laerm;72471;51.660;5.826;2024-01-15T06:00:29;46.11;39.85;61.89;;
82731;Laerm;72471;51.660;5.826;2024-01-15T06:04:29;45.99;40.47;61.03;;
82731;Laerm;72471;51.660;5.826;2024-01-15T06:08:29;46.11;41.04;55.47;;
82731;Laerm;72471;51.660;5.826;2024-01-15T06:12:30;47.22;41.08;57.08;;
82731;Laerm;72471;51.660;5.826;2024-01-15T06:16:29;49.63;40.09;62.83;;
82731;Laerm;72471;51.660;5.826;2024-01-15T06:20:29;47.77;40.04;60.5;;
82731;Laerm;72471;51.660;5.826;2024-01-15T06:24:29;45.74;38.84;56.23;;
82731;Laerm;72471;51.660;5.826;2024-01-15T06:28:29;46.74;39.18;62.42;;
82731;Laerm;72471;51.660;5.826;2024-01-15T06:32:29;47.58;40.32;61.43;;
82731;Laerm;72471;51.660;5.826;2024-01-15T06:36:29;47;39.83;60.63;;
82731;Laerm;72471;51.660;5.826;2024-01-15T06:40:29;49.27;40.47;61.05;;
82731;Laerm;72471;51.660;5.826;2024-01-15T06:44:29;49.15;39.88;61.25;;
82731;Laerm;72471;51.660;5.826;2024-01-15T06:48:29;50.11;40.81;60.6;;
82731;Laerm;72471;51.660;5.826;2024-01-15T06:52:29;48.77;40.32;67.98;;
82731;Laerm;72471;51.660;5.826;2024-01-15T06:56:29;51.35;40.39;72.89;;
82731;Laerm;72471;51.660;5.826;2024-01-15T07:00:29;49.3;39.75;70.67;;
82731;Laerm;72471;51.660;5.826;2024-01-15T07:04:29;47.62;40.07;64.52;;
82731;Laerm;72471;51.660;5.826;2024-01-15T07:08:29;49.86;40.28;60.85;;
82731;Laerm;72471;51.660;5.826;2024-01-15T07:12:30;47.52;40.39;60.85;;
82731;Laerm;72471;51.660;5.826;2024-01-15T07:16:29;46.86;40.62;61.77;;
82731;Laerm;72471;51.660;5.826;2024-01-15T07:20:29;50.02;40.17;63.42;;
82731;Laerm;72471;51.660;5.826;2024-01-15T07:24:29;48.54;40.56;60.1;;
82731;Laerm;72471;51.660;5.826;2024-01-15T07:28:29;48.61;40.11;61.31;;
82731;Laerm;72471;51.660;5.826;2024-01-15T07:32:29;48.31;39.81;63.42;;
82731;Laerm;72471;51.660;5.826;2024-01-15T07:36:29;49.51;40.23;63.11;;
82731;Laerm;72471;51.660;5.826;2024-01-15T07:40:29;47.26;40.56;62.56;;
82731;Laerm;72471;51.660;5.826;2024-01-15T07:44:29;48.81;40.47;61.54;;
82731;Laerm;72471;51.660;5.826;2024-01-15T07:48:30;46.25;39.22;63.9;;
82731;Laerm;72471;51.660;5.826;2024-01-15T07:52:30;49.36;39.66;67.39;;
82731;Laerm;72471;51.660;5.826;2024-01-15T07:56:29;48.04;39.08;62.13;;
82731;Laerm;72471;51.660;5.826;2024-01-15T08:00:32;50.75;40.23;62.34;;
82731;Laerm;72471;51.660;5.826;2024-01-15T08:04:30;49.89;38.91;63.27;;
82731;Laerm;72471;51.660;5.826;2024-01-15T08:08:30;47.53;39.09;61.41;;
82731;Laerm;72471;51.660;5.826;2024-01-15T08:12:30;48.27;39.56;66.38;;
82731;Laerm;72471;51.660;5.826;2024-01-15T08:16:30;48.08;38.13;59.49;;
82731;Laerm;72471;51.660;5.826;2024-01-15T08:20:30;49.02;39.55;67.11;;
82731;Laerm;72471;51.660;5.826;2024-01-15T08:24:30;45.71;38.49;60.51;;
82731;Laerm;72471;51.660;5.826;2024-01-15T08:28:30;44.15;38.81;58.5;;
82731;Laerm;72471;51.660;5.826;2024-01-15T08:32:30;43.8;38.83;54.74;;
82731;Laerm;72471;51.660;5.826;2024-01-15T08:36:30;46.19;38.8;60.72;;
82731;Laerm;72471;51.660;5.826;2024-01-15T08:40:30;44.39;38.95;53.15;;
82731;Laerm;72471;51.660;5.826;2024-01-15T08:44:30;46.07;38.85;60.58;;
82731;Laerm;72471;51.660;5.826;2024-01-15T08:52:30;47.27;40.24;60.96;;
82731;Laerm;72471;51.660;5.826;2024-01-15T08:56:30;47.25;40.3;61.04;;
82731;Laerm;72471;51.660;5.826;2024-01-15T09:00:30;46.53;39.01;62.43;;
82731;Laerm;72471;51.660;5.826;2024-01-15T09:04:30;48.57;39.58;62.27;;
82731;Laerm;72471;51.660;5.826;2024-01-15T09:08:30;45.95;39.64;61.39;;
82731;Laerm;72471;51.660;5.826;2024-01-15T09:12:32;45.33;40.15;60.96;;
82731;Laerm;72471;51.660;5.826;2024-01-15T09:16:30;44.57;39.35;61.08;;
82731;Laerm;72471;51.660;5.826;2024-01-15T09:20:30;44.05;38.07;61.42;;
82731;Laerm;72471;51.660;5.826;2024-01-15T09:24:30;44.78;38.35;62.89;;
82731;Laerm;72471;51.660;5.826;2024-01-15T09:28:30;49.19;40.98;64.3;;
82731;Laerm;72471;51.660;5.826;2024-01-15T09:32:30;46.62;37.96;60.82;;
82731;Laerm;72471;51.660;5.826;2024-01-15T09:36:30;44.29;38.2;60.75;;
82731;Laerm;72471;51.660;5.826;2024-01-15T09:40:31;45.92;39.14;60.08;;
82731;Laerm;72471;51.660;5.826;2024-01-15T09:44:30;45.03;38.67;57.08;;
82731;Laerm;72471;51.660;5.826;2024-01-15T09:48:30;47.42;39.63;61.04;;
82731;Laerm;72471;51.660;5.826;2024-01-15T09:52:30;46.6;38.6;60.86;;
82731;Laerm;72471;51.660;5.826;2024-01-15T09:56:30;45.5;38.18;60.26;;
82731;Laerm;72471;51.660;5.826;2024-01-15T10:00:30;46.78;39.21;57.52;;
82731;Laerm;72471;51.660;5.826;2024-01-15T10:04:30;47;38.33;62.68;;
82731;Laerm;72471;51.660;5.826;2024-01-15T10:08:30;45.64;39.36;59.45;;
82731;Laerm;72471;51.660;5.826;2024-01-15T10:12:30;48.8;40.62;60.12;;
82731;Laerm;72471;51.660;5.826;2024-01-15T10:16:30;46.06;38.86;60.93;;
82731;Laerm;72471;51.660;5.826;2024-01-15T10:20:31;48.47;39.9;60.49;;
82731;Laerm;72471;51.660;5.826;2024-01-15T10:24:30;48.28;40.69;61.06;;
82731;Laerm;72471;51.660;5.826;2024-01-15T10:28:30;47.4;37.86;60.56;;
82731;Laerm;72471;51.660;5.826;2024-01-15T10:32:30;47.47;38.51;59.64;;
82731;Laerm;72471;51.660;5.826;2024-01-15T10:36:31;44.25;39.8;58.28;;
82731;Laerm;72471;51.660;5.826;2024-01-15T10:40:30;47.52;40.62;59.82;;
82731;Laerm;72471;51.660;5.826;2024-01-15T10:44:30;47.23;39.96;59.25;;
82731;Laerm;72471;51.660;5.826;2024-01-15T10:48:31;48.95;40.57;60.04;;
82731;Laerm;72471;51.660;5.826;2024-01-15T10:52:30;45.11;38.59;57.47;;
82731;Laerm;72471;51.660;5.826;2024-01-15T11:00:30;47.07;40.45;61.05;;
82731;Laerm;72471;51.660;5.826;2024-01-15T11:04:31;47.69;39.9;59.35;;
82731;Laerm;72471;51.660;5.826;2024-01-15T11:08:30;47.76;39.46;70.47;;
82731;Laerm;72471;51.660;5.826;2024-01-15T11:12:30;48.57;40.96;59.17;;
82731;Laerm;72471;51.660;5.826;2024-01-15T11:16:53;44.89;38.92;60.33;;
82731;Laerm;72471;51.660;5.826;2024-01-15T11:20:30;48.6;39.86;59.13;;
82731;Laerm;72471;51.660;5.826;2024-01-15T11:24:33;45.67;39.38;58.75;;
82731;Laerm;72471;51.660;5.826;2024-01-15T11:28:46;46.47;39.66;57.6;;
82731;Laerm;72471;51.660;5.826;2024-01-15T11:32:33;45.42;39.58;66.18;;
82731;Laerm;72471;51.660;5.826;2024-01-15T11:37:02;49.39;40.31;63.47;;
82731;Laerm;72471;51.660;5.826;2024-01-15T11:40:38;47.65;40.92;59.25;;
82731;Laerm;72471;51.660;5.826;2024-01-15T11:44:30;45.37;39.02;54.72;;
82731;Laerm;72471;51.660;5.826;2024-01-15T11:48:33;46.24;38.69;58.58;;
82731;Laerm;72471;51.660;5.826;2024-01-15T11:52:31;47.51;40.51;61.87;;
82731;Laerm;72471;51.660;5.826;2024-01-15T11:56:30;49.69;40.83;60.76;;
82731;Laerm;72471;51.660;5.826;2024-01-15T12:00:30;45.58;39.19;58.14;;
82731;Laerm;72471;51.660;5.826;2024-01-15T12:04:30;46.85;40.83;60.66;;
82731;Laerm;72471;51.660;5.826;2024-01-15T12:08:31;44.69;40.05;57.01;;
82731;Laerm;72471;51.660;5.826;2024-01-15T12:12:33;47.14;39.73;65.33;;
82731;Laerm;72471;51.660;5.826;2024-01-15T12:16:30;48.77;40.34;62.82;;
82731;Laerm;72471;51.660;5.826;2024-01-15T12:20:30;48.78;41.14;61.14;;
82731;Laerm;72471;51.660;5.826;2024-01-15T12:24:32;46.48;39.95;61.59;;
82731;Laerm;72471;51.660;5.826;2024-01-15T12:28:30;49.63;40.07;63.65;;
82731;Laerm;72471;51.660;5.826;2024-01-15T12:32:30;49.58;40.7;60.68;;
82731;Laerm;72471;51.660;5.826;2024-01-15T12:36:31;49.36;40.02;63.79;;
82731;Laerm;72471;51.660;5.826;2024-01-15T12:40:30;47.21;38.94;61.01;;
82731;Laerm;72471;51.660;5.826;2024-01-15T12:44:30;49.05;40.27;62.15;;
82731;Laerm;72471;51.660;5.826;2024-01-15T12:48:31;48.02;41.32;59.6;;
82731;Laerm;72471;51.660;5.826;2024-01-15T12:52:30;46.6;40.5;59.3;;
82731;Laerm;72471;51.660;5.826;2024-01-15T12:56:30;46.54;39.95;58.72;;
82731;Laerm;72471;51.660;5.826;2024-01-15T13:00:30;46.31;38.7;56.02;;
82731;Laerm;72471;51.660;5.826;2024-01-15T13:04:30;46.73;39.46;60.5;;
82731;Laerm;72471;51.660;5.826;2024-01-15T13:08:35;47.23;39.88;58.7;;
82731;Laerm;72471;51.660;5.826;2024-01-15T13:12:30;46.58;40.23;64.65;;
82731;Laerm;72471;51.660;5.826;2024-01-15T13:16:35;45.72;40.61;62.86;;
82731;Laerm;72471;51.660;5.826;2024-01-15T13:20:35;48;39.21;60.88;;
82731;Laerm;72471;51.660;5.826;2024-01-15T13:24:35;47.66;39.29;59.07;;
82731;Laerm;72471;51.660;5.826;2024-01-15T13:28:31;47.93;40.18;61.57;;
82731;Laerm;72471;51.660;5.826;2024-01-15T13:32:30;46.86;39.81;58.35;;
82731;Laerm;72471;51.660;5.826;2024-01-15T13:36:30;49.18;39.88;62.04;;
82731;Laerm;72471;51.660;5.826;2024-01-15T13:44:30;48.77;39.64;63.69;;
82731;Laerm;72471;51.660;5.826;2024-01-15T13:48:30;49.04;40.08;62.19;;
82731;Laerm;72471;51.660;5.826;2024-01-15T13:52:30;48.02;38.8;69.28;;
82731;Laerm;72471;51.660;5.826;2024-01-15T13:56:30;46.22;38.29;59.06;;
82731;Laerm;72471;51.660;5.826;2024-01-15T14:00:30;46.56;37.99;55.87;;
82731;Laerm;72471;51.660;5.826;2024-01-15T14:04:30;46.39;38.81;56.4;;
82731;Laerm;72471;51.660;5.826;2024-01-15T14:08:30;51.73;43.42;68.07;;
82731;Laerm;72471;51.660;5.826;2024-01-15T14:12:30;49.63;41.03;62.04;;
82731;Laerm;72471;51.660;5.826;2024-01-15T14:16:30;49.79;40.43;61.7;;
82731;Laerm;72471;51.660;5.826;2024-01-15T14:20:30;49.72;39.65;62.5;;
82731;Laerm;72471;51.660;5.826;2024-01-15T14:24:30;49.38;39.64;60.99;;
82731;Laerm;72471;51.660;5.826;2024-01-15T14:28:30;48.08;40.01;60.18;;
82731;Laerm;72471;51.660;5.826;2024-01-15T14:32:30;48.43;40.22;61.17;;
82731;Laerm;72471;51.660;5.826;2024-01-15T14:36:30;59.81;39.86;72.18;;
82731;Laerm;72471;51.660;5.826;2024-01-15T14:40:30;49.9;39.81;61.49;;
82731;Laerm;72471;51.660;5.826;2024-01-15T14:44:31;49.24;39.62;59.4;;
82731;Laerm;72471;51.660;5.826;2024-01-15T14:48:30;48.3;39.91;58.48;;
82731;Laerm;72471;51.660;5.826;2024-01-15T14:52:30;51.03;39.87;67.75;;
82731;Laerm;72471;51.660;5.826;2024-01-15T14:56:30;49.44;41.3;61.16;;
82731;Laerm;72471;51.660;5.826;2024-01-15T15:00:30;48.24;41.47;61.87;;
82731;Laerm;72471;51.660;5.826;2024-01-15T15:04:30;47.82;40.23;61.02;;
82731;Laerm;72471;51.660;5.826;2024-01-15T15:08:30;50.91;42.18;68.05;;
82731;Laerm;72471;51.660;5.826;2024-01-15T15:12:30;50.42;41.19;65.34;;
82731;Laerm;72471;51.660;5.826;2024-01-15T15:20:30;50.33;41.35;61.58;;
82731;Laerm;72471;51.660;5.826;2024-01-15T15:24:30;49.38;42.14;61.31;;
82731;Laerm;72471;51.660;5.826;2024-01-15T15:28:30;50.37;42.5;62.08;;
82731;Laerm;72471;51.660;5.826;2024-01-15T15:32:30;49.11;40.97;61.79;;
82731;Laerm;72471;51.660;5.826;2024-01-15T15:36:30;52.37;40.86;65.62;;
82731;Laerm;72471;51.660;5.826;2024-01-15T15:40:30;67.02;42.51;85.52;;
82731;Laerm;72471;51.660;5.826;2024-01-15T15:44:30;63.22;42.26;82.82;;
82731;Laerm;72471;51.660;5.826;2024-01-15T15:48:30;50.13;40.83;62.75;;
82731;Laerm;72471;51.660;5.826;2024-01-15T15:52:30;50.75;41.48;70.3;;
82731;Laerm;72471;51.660;5.826;2024-01-15T15:56:30;49.62;41.6;63.72;;
82731;Laerm;72471;51.660;5.826;2024-01-15T16:00:30;49.97;40.93;60.29;;
82731;Laerm;72471;51.660;5.826;2024-01-15T16:04:31;50.67;41.78;62.55;;
82731;Laerm;72471;51.660;5.826;2024-01-15T16:08:30;50.72;41.26;62.5;;
82731;Laerm;72471;51.660;5.826;2024-01-15T16:12:30;50.48;40.79;61.63;;
82731;Laerm;72471;51.660;5.826;2024-01-15T16:16:30;56.84;40.51;68.56;;
82731;Laerm;72471;51.660;5.826;2024-01-15T16:20:30;52.82;41.16;69.44;;
82731;Laerm;72471;51.660;5.826;2024-01-15T16:24:30;58.27;43.05;74.43;;
82731;Laerm;72471;51.660;5.826;2024-01-15T16:28:30;52.7;41.79;71.63;;
82731;Laerm;72471;51.660;5.826;2024-01-15T16:32:30;59.55;42.63;72.12;;
82731;Laerm;72471;51.660;5.826;2024-01-15T16:36:30;60.22;43.06;75.65;;
82731;Laerm;72471;51.660;5.826;2024-01-15T16:40:30;61.75;42.14;80;;
82731;Laerm;72471;51.660;5.826;2024-01-15T16:44:30;50.43;40.83;63.85;;
82731;Laerm;72471;51.660;5.826;2024-01-15T16:48:30;51.39;41.42;65.03;;
82731;Laerm;72471;51.660;5.826;2024-01-15T16:52:30;49.44;41.47;62.65;;
82731;Laerm;72471;51.660;5.826;2024-01-15T16:56:30;48.13;40.26;62.04;;
82731;Laerm;72471;51.660;5.826;2024-01-15T17:00:30;47.27;40.11;61.61;;
82731;Laerm;72471;51.660;5.826;2024-01-15T17:04:30;47.49;40.26;61.28;;
82731;Laerm;72471;51.660;5.826;2024-01-15T17:08:30;49.56;39.57;65.08;;
82731;Laerm;72471;51.660;5.826;2024-01-15T17:12:30;56.9;40.37;75.28;;
82731;Laerm;72471;51.660;5.826;2024-01-15T17:16:30;49.25;38.42;63.11;;
82731;Laerm;72471;51.660;5.826;2024-01-15T17:20:30;56.39;39.93;71.88;;
82731;Laerm;72471;51.660;5.826;2024-01-15T17:24:30;47.51;39.07;61.99;;
82731;Laerm;72471;51.660;5.826;2024-01-15T17:28:30;48.78;39.38;62.07;;
82731;Laerm;72471;51.660;5.826;2024-01-15T17:32:30;50.24;38.5;69.63;;
82731;Laerm;72471;51.660;5.826;2024-01-15T17:36:30;50.03;39.06;69.47;;
82731;Laerm;72471;51.660;5.826;2024-01-15T17:40:30;47.53;38.29;66.22;;
82731;Laerm;72471;51.660;5.826;2024-01-15T17:44:30;50.33;38.42;64.56;;
82731;Laerm;72471;51.660;5.826;2024-01-15T17:48:30;45.76;38.33;61.23;;
82731;Laerm;72471;51.660;5.826;2024-01-15T17:52:30;45.48;38.28;61.1;;
82731;Laerm;72471;51.660;5.826;2024-01-15T17:56:30;44.79;38.6;61.69;;
82731;Laerm;72471;51.660;5.826;2024-01-15T18:00:31;44.05;37.46;62.49;;
82731;Laerm;72471;51.660;5.826;2024-01-15T18:04:30;44.6;39;61.53;;
82731;Laerm;72471;51.660;5.826;2024-01-15T18:08:30;47.52;39.09;62.67;;
82731;Laerm;72471;51.660;5.826;2024-01-15T18:12:30;54.9;38.66;71.64;;
82731;Laerm;72471;51.660;5.826;2024-01-15T18:16:30;56.2;38.76;69.41;;
82731;Laerm;72471;51.660;5.826;2024-01-15T18:20:31;44.25;38.46;61.95;;
82731;Laerm;72471;51.660;5.826;2024-01-15T18:24:30;54.3;39.31;71.24;;
82731;Laerm;72471;51.660;5.826;2024-01-15T18:28:30;46.73;37.07;61.71;;
82731;Laerm;72471;51.660;5.826;2024-01-15T18:32:31;45.83;37.73;61.42;;
82731;Laerm;72471;51.660;5.826;2024-01-15T18:36:31;43.54;36.97;61.94;;
82731;Laerm;72471;51.660;5.826;2024-01-15T18:40:31;44.06;37.64;61.16;;
82731;Laerm;72471;51.660;5.826;2024-01-15T18:44:31;43.42;37.58;60.91;;
82731;Laerm;72471;51.660;5.826;2024-01-15T18:48:31;43.82;38.17;61.16;;
82731;Laerm;72471;51.660;5.826;2024-01-15T18:52:31;45.62;37.55;62.21;;
82731;Laerm;72471;51.660;5.826;2024-01-15T18:56:31;44.78;37.88;60.93;;
82731;Laerm;72471;51.660;5.826;2024-01-15T19:00:31;44.96;38.11;61.64;;
82731;Laerm;72471;51.660;5.826;2024-01-15T19:04:31;43.98;37.67;60.91;;
82731;Laerm;72471;51.660;5.826;2024-01-15T19:08:31;49.6;37.32;64.94;;
82731;Laerm;72471;51.660;5.826;2024-01-15T19:12:31;45.77;36.81;61;;
82731;Laerm;72471;51.660;5.826;2024-01-15T19:16:31;44.8;37.44;61.11;;
82731;Laerm;72471;51.660;5.826;2024-01-15T19:20:31;43.43;37.04;61.21;;
82731;Laerm;72471;51.660;5.826;2024-01-15T19:24:31;62.41;37.72;87.29;;
82731;Laerm;72471;51.660;5.826;2024-01-15T19:28:31;66.92;37.27;88.04;;
82731;Laerm;72471;51.660;5.826;2024-01-15T19:32:31;43.8;37.34;62.28;;
82731;Laerm;72471;51.660;5.826;2024-01-15T19:36:31;44.2;37.34;62.29;;
82731;Laerm;72471;51.660;5.826;2024-01-15T19:40:31;42.42;37.24;61.18;;
82731;Laerm;72471;51.660;5.826;2024-01-15T19:44:31;44.47;37.16;61.43;;
82731;Laerm;72471;51.660;5.826;2024-01-15T19:48:31;56.3;36.82;69.46;;
82731;Laerm;72471;51.660;5.826;2024-01-15T19:52:31;55.73;38.55;66.54;;
82731;Laerm;72471;51.660;5.826;2024-01-15T19:56:31;54.04;37.37;70.17;;
82731;Laerm;72471;51.660;5.826;2024-01-15T20:00:31;47.11;38.01;61.45;;
82731;Laerm;72471;51.660;5.826;2024-01-15T20:04:31;42.8;36.29;62.45;;
82731;Laerm;72471;51.660;5.826;2024-01-15T20:08:31;49;36.27;74;;
82731;Laerm;72471;51.660;5.826;2024-01-15T20:12:31;43.55;37.4;60.88;;
82731;Laerm;72471;51.660;5.826;2024-01-15T20:16:31;42.46;36.96;62.74;;
82731;Laerm;72471;51.660;5.826;2024-01-15T20:20:31;42.17;36.89;61.44;;
82731;Laerm;72471;51.660;5.826;2024-01-15T20:24:31;44.58;37.79;61.39;;
82731;Laerm;72471;51.660;5.826;2024-01-15T20:28:31;42.59;36.96;60.91;;
82731;Laerm;72471;51.660;5.826;2024-01-15T20:32:31;45.5;37.37;62.56;;
82731;Laerm;72471;51.660;5.826;2024-01-15T20:36:31;48.43;37.78;62.39;;
82731;Laerm;72471;51.660;5.826;2024-01-15T20:40:31;55.97;36.81;77.04;;
82731;Laerm;72471;51.660;5.826;2024-01-15T20:44:31;48.74;36.54;62.69;;
82731;Laerm;72471;51.660;5.826;2024-01-15T20:48:31;44.2;36.37;61.78;;
82731;Laerm;72471;51.660;5.826;2024-01-15T20:52:31;47.03;36.81;61.18;;
82731;Laerm;72471;51.660;5.826;2024-01-15T20:56:31;59.57;37.93;75.61;;
82731;Laerm;72471;51.660;5.826;2024-01-15T21:00:31;46.88;37.13;61.88;;
82731;Laerm;72471;51.660;5.826;2024-01-15T21:04:31;49.16;36.76;66.84;;
82731;Laerm;72471;51.660;5.826;2024-01-15T21:08:31;42.61;36.32;61.62;;
82731;Laerm;72471;51.660;5.826;2024-01-15T21:12:31;43.96;37.1;61.25;;
82731;Laerm;72471;51.660;5.826;2024-01-15T21:16:31;44.12;35.93;62.67;;
82731;Laerm;72471;51.660;5.826;2024-01-15T21:20:31;42.92;35.81;61.18;;
82731;Laerm;72471;51.660;5.826;2024-01-15T21:24:31;43.38;37.07;61.22;;
82731;Laerm;72471;51.660;5.826;2024-01-15T21:28:31;42.66;36.42;61.81;;
82731;Laerm;72471;51.660;5.826;2024-01-15T21:32:31;43.72;36.15;61.87;;
82731;Laerm;72471;51.660;5.826;2024-01-15T21:36:31;44.62;35.94;61.53;;
82731;Laerm;72471;51.660;5.826;2024-01-15T21:40:31;41.38;36.39;61.41;;
82731;Laerm;72471;51.660;5.826;2024-01-15T21:44:31;41.71;36.51;61.27;;
82731;Laerm;72471;51.660;5.826;2024-01-15T21:48:31;42.09;35.5;61.36;;
82731;Laerm;72471;51.660;5.826;2024-01-15T21:52:31;42.93;35.49;62.32;;
82731;Laerm;72471;51.660;5.826;2024-01-15T21:56:31;43.15;36.42;62.27;;
82731;Laerm;72471;51.660;5.826;2024-01-15T22:00:31;42.28;36.15;62.36;;
82731;Laerm;72471;51.660;5.826;2024-01-15T22:04:31;41.4;35.86;61.2;;
82731;Laerm;72471;51.660;5.826;2024-01-15T22:08:32;41.45;36.28;60.75;;
82731;Laerm;72471;51.660;5.826;2024-01-15T22:12:31;42.68;36.2;60.49;;
82731;Laerm;72471;51.660;5.826;2024-01-15T22:16:31;43.28;36.35;62.11;;
82731;Laerm;72471;51.660;5.826;2024-01-15T22:20:31;40.85;36.17;60.66;;
82731;Laerm;72471;51.660;5.826;2024-01-15T22:24:31;41.15;36.34;61.02;;
82731;Laerm;72471;51.660;5.826;2024-01-15T22:28:31;41.45;35.4;61.31;;
82731;Laerm;72471;51.660;5.826;2024-01-15T22:32:31;41.79;35.34;61.27;;
82731;Laerm;72471;51.660;5.826;2024-01-15T22:36:31;41.77;35.51;62.18;;
82731;Laerm;72471;51.660;5.826;2024-01-15T22:40:31;41.32;35.74;61.52;;
82731;Laerm;72471;51.660;5.826;2024-01-15T22:44:31;40.98;35.95;61.64;;
82731;Laerm;72471;51.660;5.826;2024-01-15T22:48:31;43.16;36.17;61.36;;